sensor_id;sensor_type;location;lat;lon;timestamp;temperature;humidity
5196;DHT22;2617;51.006;12.436;2023-02-13T00:04:52;5.70;99.90
5196;DHT22;2617;51.006;12.436;2023-02-13T00:09:54;5.70;99.90
5196;DHT22;2617;51.006;12.436;2023-02-13T00:14:57;5.60;99.90
5196;DHT22;2617;51.006;12.436;2023-02-13T00:20:00;5.70;99.90
5196;DHT22;2617;51.006;12.436;2023-02-13T00:25:03;5.60;99.90
5196;DHT22;2617;51.006;12.436;2023-02-13T00:30:07;5.60;99.90
5196;DHT22;2617;51.006;12.436;2023-02-13T00:35:09;5.70;99.90
5196;DHT22;2617;51.006;12.436;2023-02-13T00:40:12;5.60;99.90
5196;DHT22;2617;51.006;12.436;2023-02-13T00:45:15;5.70;99.90
5196;DHT22;2617;51.006;12.436;2023-02-13T00:50:18;5.70;99.90
5196;DHT22;2617;51.006;12.436;2023-02-13T00:55:20;5.70;99.90
5196;DHT22;2617;51.006;12.436;2023-02-13T01:00:23;5.70;99.90
5196;DHT22;2617;51.006;12.436;2023-02-13T01:05:26;5.60;99.90
5196;DHT22;2617;51.006;12.436;2023-02-13T01:10:28;5.60;99.90
5196;DHT22;2617;51.006;12.436;2023-02-13T01:15:30;5.60;99.90
5196;DHT22;2617;51.006;12.436;2023-02-13T01:20:33;5.60;99.90
5196;DHT22;2617;51.006;12.436;2023-02-13T01:25:38;5.60;99.90
5196;DHT22;2617;51.006;12.436;2023-02-13T01:30:40;5.60;99.90
5196;DHT22;2617;51.006;12.436;2023-02-13T01:35:43;5.60;99.90
5196;DHT22;2617;51.006;12.436;2023-02-13T01:40:46;5.60;99.90
5196;DHT22;2617;51.006;12.436;2023-02-13T01:45:49;5.60;99.90
5196;DHT22;2617;51.006;12.436;2023-02-13T01:50:56;5.50;99.90
5196;DHT22;2617;51.006;12.436;2023-02-13T01:56:03;5.50;99.90
5196;DHT22;2617;51.006;12.436;2023-02-13T02:01:04;5.50;99.90
5196;DHT22;2617;51.006;12.436;2023-02-13T02:06:08;5.50;99.90
5196;DHT22;2617;51.006;12.436;2023-02-13T02:11:13;5.50;99.90
5196;DHT22;2617;51.006;12.436;2023-02-13T02:16:13;5.50;99.90
5196;DHT22;2617;51.006;12.436;2023-02-13T02:32:18;5.40;99.90
5196;DHT22;2617;51.006;12.436;2023-02-13T02:48:20;5.30;99.90
5196;DHT22;2617;51.006;12.436;2023-02-13T02:53:41;5.30;99.90
5196;DHT22;2617;51.006;12.436;2023-02-13T02:58:46;5.30;99.90
5196;DHT22;2617;51.006;12.436;2023-02-13T03:03:54;5.30;99.90
5196;DHT22;2617;51.006;12.436;2023-02-13T03:09:18;5.30;99.90
5196;DHT22;2617;51.006;12.436;2023-02-13T03:14:24;5.30;99.90
5196;DHT22;2617;51.006;12.436;2023-02-13T03:19:32;5.20;99.90
5196;DHT22;2617;51.006;12.436;2023-02-13T03:30:03;5.20;99.90
5196;DHT22;2617;51.006;12.436;2023-02-13T03:40:44;5.20;99.90
5196;DHT22;2617;51.006;12.436;2023-02-13T03:46:00;5.10;99.90
5196;DHT22;2617;51.006;12.436;2023-02-13T03:51:03;5.10;99.90
5196;DHT22;2617;51.006;12.436;2023-02-13T03:56:06;5.10;99.90
5196;DHT22;2617;51.006;12.436;2023-02-13T04:01:15;5.10;99.90
5196;DHT22;2617;51.006;12.436;2023-02-13T04:06:19;5.10;99.90
5196;DHT22;2617;51.006;12.436;2023-02-13T04:11:30;5.10;99.90
5196;DHT22;2617;51.006;12.436;2023-02-13T04:16:40;5.00;99.90
5196;DHT22;2617;51.006;12.436;2023-02-13T04:21:41;5.00;99.90
5196;DHT22;2617;51.006;12.436;2023-02-13T04:26:44;5.00;99.90
5196;DHT22;2617;51.006;12.436;2023-02-13T04:31:46;5.00;99.90
5196;DHT22;2617;51.006;12.436;2023-02-13T04:36:50;4.90;99.90
5196;DHT22;2617;51.006;12.436;2023-02-13T04:41:53;4.90;99.90
5196;DHT22;2617;51.006;12.436;2023-02-13T04:46:55;4.90;99.90
5196;DHT22;2617;51.006;12.436;2023-02-13T04:51:58;4.80;99.90
5196;DHT22;2617;51.006;12.436;2023-02-13T04:57:01;4.70;99.90
5196;DHT22;2617;51.006;12.436;2023-02-13T05:02:03;4.70;99.90
5196;DHT22;2617;51.006;12.436;2023-02-13T05:07:05;4.70;99.90
5196;DHT22;2617;51.006;12.436;2023-02-13T05:12:08;4.70;99.90
5196;DHT22;2617;51.006;12.436;2023-02-13T05:17:11;4.70;99.90
5196;DHT22;2617;51.006;12.436;2023-02-13T05:22:13;4.70;99.90
5196;DHT22;2617;51.006;12.436;2023-02-13T05:27:21;4.70;99.90
5196;DHT22;2617;51.006;12.436;2023-02-13T05:32:24;4.70;99.90
5196;DHT22;2617;51.006;12.436;2023-02-13T05:37:27;4.70;99.90
5196;DHT22;2617;51.006;12.436;2023-02-13T05:42:29;4.70;99.90
5196;DHT22;2617;51.006;12.436;2023-02-13T05:47:31;4.70;99.90
5196;DHT22;2617;51.006;12.436;2023-02-13T05:52:35;4.70;99.90
5196;DHT22;2617;51.006;12.436;2023-02-13T05:57:37;4.60;99.90
5196;DHT22;2617;51.006;12.436;2023-02-13T06:02:39;4.60;99.90
5196;DHT22;2617;51.006;12.436;2023-02-13T06:07:42;4.60;99.90
5196;DHT22;2617;51.006;12.436;2023-02-13T06:12:44;4.60;99.90
5196;DHT22;2617;51.006;12.436;2023-02-13T06:17:47;4.60;99.90
5196;DHT22;2617;51.006;12.436;2023-02-13T06:22:49;4.60;99.90
5196;DHT22;2617;51.006;12.436;2023-02-13T06:27:53;4.60;99.90
5196;DHT22;2617;51.006;12.436;2023-02-13T06:32:55;4.50;99.90
5196;DHT22;2617;51.006;12.436;2023-02-13T06:37:57;4.50;99.90
5196;DHT22;2617;51.006;12.436;2023-02-13T06:43:00;4.50;99.90
5196;DHT22;2617;51.006;12.436;2023-02-13T06:48:02;4.50;99.90
5196;DHT22;2617;51.006;12.436;2023-02-13T06:53:07;4.50;99.90
5196;DHT22;2617;51.006;12.436;2023-02-13T06:58:10;4.50;99.90
5196;DHT22;2617;51.006;12.436;2023-02-13T07:03:13;4.50;99.90
5196;DHT22;2617;51.006;12.436;2023-02-13T07:08:15;4.50;99.90
5196;DHT22;2617;51.006;12.436;2023-02-13T07:13:18;4.60;99.90
5196;DHT22;2617;51.006;12.436;2023-02-13T07:18:20;4.60;99.90
5196;DHT22;2617;51.006;12.436;2023-02-13T07:23:23;4.60;99.90
5196;DHT22;2617;51.006;12.436;2023-02-13T07:28:26;4.70;99.90
5196;DHT22;2617;51.006;12.436;2023-02-13T07:33:29;4.80;99.90
5196;DHT22;2617;51.006;12.436;2023-02-13T07:38:32;4.80;99.90
5196;DHT22;2617;51.006;12.436;2023-02-13T07:43:34;4.90;99.90
5196;DHT22;2617;51.006;12.436;2023-02-13T07:48:38;5.00;99.90
5196;DHT22;2617;51.006;12.436;2023-02-13T07:53:40;5.00;99.90
5196;DHT22;2617;51.006;12.436;2023-02-13T07:58:42;5.10;99.90
5196;DHT22;2617;51.006;12.436;2023-02-13T08:03:47;5.10;99.90
5196;DHT22;2617;51.006;12.436;2023-02-13T08:08:49;5.10;99.90
5196;DHT22;2617;51.006;12.436;2023-02-13T08:13:52;5.10;99.90
5196;DHT22;2617;51.006;12.436;2023-02-13T08:18:55;5.10;99.90
5196;DHT22;2617;51.006;12.436;2023-02-13T08:23:58;5.10;99.90
5196;DHT22;2617;51.006;12.436;2023-02-13T08:29:00;5.00;99.90
5196;DHT22;2617;51.006;12.436;2023-02-13T08:34:03;5.00;99.90
5196;DHT22;2617;51.006;12.436;2023-02-13T08:39:05;5.00;99.90
5196;DHT22;2617;51.006;12.436;2023-02-13T08:44:08;5.00;99.90
5196;DHT22;2617;51.006;12.436;2023-02-13T08:49:10;5.00;99.90
5196;DHT22;2617;51.006;12.436;2023-02-13T08:54:14;5.00;99.90
5196;DHT22;2617;51.006;12.436;2023-02-13T08:59:16;4.90;99.90
5196;DHT22;2617;51.006;12.436;2023-02-13T09:04:18;5.00;99.90
5196;DHT22;2617;51.006;12.436;2023-02-13T09:09:22;4.90;99.90
5196;DHT22;2617;51.006;12.436;2023-02-13T09:14:25;4.90;99.90
5196;DHT22;2617;51.006;12.436;2023-02-13T09:19:28;4.90;99.90
5196;DHT22;2617;51.006;12.436;2023-02-13T09:24:30;4.90;99.90
5196;DHT22;2617;51.006;12.436;2023-02-13T09:29:33;4.90;99.90
5196;DHT22;2617;51.006;12.436;2023-02-13T09:34:35;4.90;99.90
5196;DHT22;2617;51.006;12.436;2023-02-13T09:39:37;4.90;99.90
5196;DHT22;2617;51.006;12.436;2023-02-13T09:44:41;5.00;99.90
5196;DHT22;2617;51.006;12.436;2023-02-13T09:49:45;5.00;99.90
5196;DHT22;2617;51.006;12.436;2023-02-13T09:54:48;5.10;99.90
5196;DHT22;2617;51.006;12.436;2023-02-13T10:11:10;5.20;99.90
5196;DHT22;2617;51.006;12.436;2023-02-13T10:16:22;5.10;99.90
5196;DHT22;2617;51.006;12.436;2023-02-13T10:21:36;5.20;99.90
5196;DHT22;2617;51.006;12.436;2023-02-13T10:26:38;5.20;99.90
5196;DHT22;2617;51.006;12.436;2023-02-13T10:31:44;5.30;99.90
5196;DHT22;2617;51.006;12.436;2023-02-13T10:36:47;5.30;99.90
5196;DHT22;2617;51.006;12.436;2023-02-13T10:41:52;5.30;99.90
5196;DHT22;2617;51.006;12.436;2023-02-13T10:52:43;5.50;99.90
5196;DHT22;2617;51.006;12.436;2023-02-13T10:57:58;5.50;99.90
5196;DHT22;2617;51.006;12.436;2023-02-13T11:02:59;5.60;99.90
5196;DHT22;2617;51.006;12.436;2023-02-13T11:08:02;5.80;99.90
5196;DHT22;2617;51.006;12.436;2023-02-13T11:13:20;5.70;99.90
5196;DHT22;2617;51.006;12.436;2023-02-13T11:18:22;5.80;99.90
5196;DHT22;2617;51.006;12.436;2023-02-13T11:28:49;5.90;99.90
5196;DHT22;2617;51.006;12.436;2023-02-13T11:34:25;6.00;99.90
5196;DHT22;2617;51.006;12.436;2023-02-13T11:39:27;5.90;99.90
5196;DHT22;2617;51.006;12.436;2023-02-13T11:44:30;6.00;99.90
5196;DHT22;2617;51.006;12.436;2023-02-13T11:49:35;6.10;99.90
5196;DHT22;2617;51.006;12.436;2023-02-13T11:54:42;6.20;99.90
5196;DHT22;2617;51.006;12.436;2023-02-13T11:59:44;6.20;99.90
5196;DHT22;2617;51.006;12.436;2023-02-13T12:04:47;6.20;99.90
5196;DHT22;2617;51.006;12.436;2023-02-13T12:09:53;6.30;99.90
5196;DHT22;2617;51.006;12.436;2023-02-13T12:14:55;6.30;99.90
5196;DHT22;2617;51.006;12.436;2023-02-13T12:19:58;6.30;99.90
5196;DHT22;2617;51.006;12.436;2023-02-13T12:25:10;6.40;99.90
5196;DHT22;2617;51.006;12.436;2023-02-13T12:35:52;6.50;99.90
5196;DHT22;2617;51.006;12.436;2023-02-13T12:46:34;6.60;99.90
5196;DHT22;2617;51.006;12.436;2023-02-13T12:51:44;6.80;99.90
5196;DHT22;2617;51.006;12.436;2023-02-13T12:56:53;6.80;99.90
5196;DHT22;2617;51.006;12.436;2023-02-13T13:07:50;6.80;99.90
5196;DHT22;2617;51.006;12.436;2023-02-13T13:13:02;6.80;99.90
5196;DHT22;2617;51.006;12.436;2023-02-13T13:18:21;6.70;99.90
5196;DHT22;2617;51.006;12.436;2023-02-13T13:23:41;6.80;99.90
5196;DHT22;2617;51.006;12.436;2023-02-13T13:28:45;6.80;99.90
5196;DHT22;2617;51.006;12.436;2023-02-13T13:33:47;6.60;99.90
5196;DHT22;2617;51.006;12.436;2023-02-13T13:39:01;6.60;99.90
5196;DHT22;2617;51.006;12.436;2023-02-13T13:44:35;6.50;99.90
5196;DHT22;2617;51.006;12.436;2023-02-13T13:54:51;6.80;99.90
5196;DHT22;2617;51.006;12.436;2023-02-13T13:59:54;6.90;99.90
5196;DHT22;2617;51.006;12.436;2023-02-13T14:16:04;7.20;99.90
5196;DHT22;2617;51.006;12.436;2023-02-13T14:21:07;7.20;99.90
5196;DHT22;2617;51.006;12.436;2023-02-13T14:31:34;6.90;99.90
5196;DHT22;2617;51.006;12.436;2023-02-13T14:36:38;6.80;99.90
5196;DHT22;2617;51.006;12.436;2023-02-13T14:41:40;6.80;99.90
5196;DHT22;2617;51.006;12.436;2023-02-13T14:46:43;6.80;99.90
5196;DHT22;2617;51.006;12.436;2023-02-13T14:51:48;6.90;99.90
5196;DHT22;2617;51.006;12.436;2023-02-13T14:56:50;6.90;99.90
5196;DHT22;2617;51.006;12.436;2023-02-13T15:01:55;6.90;99.90
5196;DHT22;2617;51.006;12.436;2023-02-13T15:07:26;6.80;99.90
5196;DHT22;2617;51.006;12.436;2023-02-13T15:12:29;6.70;99.90
5196;DHT22;2617;51.006;12.436;2023-02-13T15:17:32;6.50;99.90
5196;DHT22;2617;51.006;12.436;2023-02-13T15:22:36;6.40;99.90
5196;DHT22;2617;51.006;12.436;2023-02-13T15:27:40;6.30;99.90
5196;DHT22;2617;51.006;12.436;2023-02-13T15:32:42;6.30;99.90
5196;DHT22;2617;51.006;12.436;2023-02-13T15:37:44;6.30;99.90
5196;DHT22;2617;51.006;12.436;2023-02-13T15:42:47;6.20;99.90
5196;DHT22;2617;51.006;12.436;2023-02-13T15:47:49;6.20;99.90
5196;DHT22;2617;51.006;12.436;2023-02-13T15:52:52;6.10;99.90
5196;DHT22;2617;51.006;12.436;2023-02-13T15:57:56;6.10;99.90
5196;DHT22;2617;51.006;12.436;2023-02-13T16:02:57;6.00;99.90
5196;DHT22;2617;51.006;12.436;2023-02-13T16:08:01;6.00;99.90
5196;DHT22;2617;51.006;12.436;2023-02-13T16:13:05;5.90;99.90
5196;DHT22;2617;51.006;12.436;2023-02-13T16:18:10;5.90;99.90
5196;DHT22;2617;51.006;12.436;2023-02-13T16:23:20;5.80;99.90
5196;DHT22;2617;51.006;12.436;2023-02-13T16:28:23;5.80;99.90
5196;DHT22;2617;51.006;12.436;2023-02-13T16:33:27;5.70;99.90
5196;DHT22;2617;51.006;12.436;2023-02-13T16:38:33;5.60;99.90
5196;DHT22;2617;51.006;12.436;2023-02-13T16:43:52;5.60;99.90
5196;DHT22;2617;51.006;12.436;2023-02-13T16:49:12;5.50;99.90
5196;DHT22;2617;51.006;12.436;2023-02-13T16:54:32;5.50;99.90
5196;DHT22;2617;51.006;12.436;2023-02-13T16:59:47;5.40;99.90
5196;DHT22;2617;51.006;12.436;2023-02-13T17:05:12;5.30;99.90
5196;DHT22;2617;51.006;12.436;2023-02-13T17:10:20;5.20;99.90
5196;DHT22;2617;51.006;12.436;2023-02-13T17:15:22;5.20;99.90
5196;DHT22;2617;51.006;12.436;2023-02-13T17:20:26;5.20;99.90
5196;DHT22;2617;51.006;12.436;2023-02-13T17:25:31;5.20;99.90
5196;DHT22;2617;51.006;12.436;2023-02-13T17:30:32;5.20;99.90
5196;DHT22;2617;51.006;12.436;2023-02-13T17:35:35;5.20;99.90
5196;DHT22;2617;51.006;12.436;2023-02-13T17:40:37;5.20;99.90
5196;DHT22;2617;51.006;12.436;2023-02-13T17:45:40;5.10;99.90
5196;DHT22;2617;51.006;12.436;2023-02-13T17:50:43;5.10;99.90
5196;DHT22;2617;51.006;12.436;2023-02-13T17:55:45;5.10;99.90
5196;DHT22;2617;51.006;12.436;2023-02-13T18:00:49;5.10;99.90
5196;DHT22;2617;51.006;12.436;2023-02-13T18:05:51;5.10;99.90
5196;DHT22;2617;51.006;12.436;2023-02-13T18:10:53;5.10;99.90
5196;DHT22;2617;51.006;12.436;2023-02-13T18:15:56;5.10;99.90
5196;DHT22;2617;51.006;12.436;2023-02-13T18:20:58;5.10;99.90
5196;DHT22;2617;51.006;12.436;2023-02-13T18:26:03;5.00;99.90
5196;DHT22;2617;51.006;12.436;2023-02-13T18:31:07;5.00;99.90
5196;DHT22;2617;51.006;12.436;2023-02-13T18:36:08;4.90;99.90
5196;DHT22;2617;51.006;12.436;2023-02-13T18:41:11;4.90;99.90
5196;DHT22;2617;51.006;12.436;2023-02-13T18:46:14;4.90;99.90
5196;DHT22;2617;51.006;12.436;2023-02-13T18:51:17;4.80;99.90
5196;DHT22;2617;51.006;12.436;2023-02-13T18:56:19;4.80;99.90
5196;DHT22;2617;51.006;12.436;2023-02-13T19:01:22;4.80;99.90
5196;DHT22;2617;51.006;12.436;2023-02-13T19:06:25;4.70;99.90
5196;DHT22;2617;51.006;12.436;2023-02-13T19:11:27;4.70;99.90
5196;DHT22;2617;51.006;12.436;2023-02-13T19:16:31;4.70;99.90
5196;DHT22;2617;51.006;12.436;2023-02-13T19:21:35;4.60;99.90
5196;DHT22;2617;51.006;12.436;2023-02-13T19:26:36;4.60;99.90
5196;DHT22;2617;51.006;12.436;2023-02-13T19:31:41;4.60;99.90
5196;DHT22;2617;51.006;12.436;2023-02-13T19:36:44;4.50;99.90
5196;DHT22;2617;51.006;12.436;2023-02-13T19:41:46;4.50;99.90
5196;DHT22;2617;51.006;12.436;2023-02-13T19:46:50;4.40;99.90
5196;DHT22;2617;51.006;12.436;2023-02-13T19:51:52;4.40;99.90
5196;DHT22;2617;51.006;12.436;2023-02-13T19:56:55;4.40;99.90
5196;DHT22;2617;51.006;12.436;2023-02-13T20:01:58;4.30;99.90
5196;DHT22;2617;51.006;12.436;2023-02-13T20:07:02;4.30;99.90
5196;DHT22;2617;51.006;12.436;2023-02-13T20:12:04;4.30;99.90
5196;DHT22;2617;51.006;12.436;2023-02-13T20:17:07;4.20;99.90
5196;DHT22;2617;51.006;12.436;2023-02-13T20:22:10;4.10;99.90
5196;DHT22;2617;51.006;12.436;2023-02-13T20:27:13;4.10;99.90
5196;DHT22;2617;51.006;12.436;2023-02-13T20:32:18;4.10;99.90
5196;DHT22;2617;51.006;12.436;2023-02-13T20:37:21;4.10;99.90
5196;DHT22;2617;51.006;12.436;2023-02-13T20:42:23;4.10;99.90
5196;DHT22;2617;51.006;12.436;2023-02-13T20:47:26;4.10;99.90
5196;DHT22;2617;51.006;12.436;2023-02-13T20:52:29;4.00;99.90
5196;DHT22;2617;51.006;12.436;2023-02-13T20:57:32;4.00;99.90
5196;DHT22;2617;51.006;12.436;2023-02-13T21:02:35;3.90;99.90
5196;DHT22;2617;51.006;12.436;2023-02-13T21:07:37;3.90;99.90
5196;DHT22;2617;51.006;12.436;2023-02-13T21:12:39;3.80;99.90
5196;DHT22;2617;51.006;12.436;2023-02-13T21:17:42;3.80;99.90
5196;DHT22;2617;51.006;12.436;2023-02-13T21:22:44;3.80;99.90
5196;DHT22;2617;51.006;12.436;2023-02-13T21:27:47;3.70;99.90
5196;DHT22;2617;51.006;12.436;2023-02-13T21:32:50;3.70;99.90
5196;DHT22;2617;51.006;12.436;2023-02-13T21:37:52;3.70;99.90
5196;DHT22;2617;51.006;12.436;2023-02-13T21:42:55;3.70;99.90
5196;DHT22;2617;51.006;12.436;2023-02-13T21:47:57;3.70;99.90
5196;DHT22;2617;51.006;12.436;2023-02-13T21:52:59;3.80;99.90
5196;DHT22;2617;51.006;12.436;2023-02-13T21:58:03;3.80;99.90
5196;DHT22;2617;51.006;12.436;2023-02-13T22:03:05;3.80;99.90
5196;DHT22;2617;51.006;12.436;2023-02-13T22:08:08;3.80;99.90
5196;DHT22;2617;51.006;12.436;2023-02-13T22:13:11;3.80;99.90
5196;DHT22;2617;51.006;12.436;2023-02-13T22:18:13;3.80;99.90
5196;DHT22;2617;51.006;12.436;2023-02-13T22:23:16;3.80;99.90
5196;DHT22;2617;51.006;12.436;2023-02-13T22:28:19;3.70;99.90
5196;DHT22;2617;51.006;12.436;2023-02-13T22:33:21;3.70;99.90
5196;DHT22;2617;51.006;12.436;2023-02-13T22:38:24;3.70;99.90
5196;DHT22;2617;51.006;12.436;2023-02-13T22:43:26;3.70;99.90
5196;DHT22;2617;51.006;12.436;2023-02-13T22:48:29;3.70;99.90
5196;DHT22;2617;51.006;12.436;2023-02-13T22:53:31;3.70;99.90
5196;DHT22;2617;51.006;12.436;2023-02-13T22:58:34;3.70;99.90
5196;DHT22;2617;51.006;12.436;2023-02-13T23:03:36;3.70;99.90
5196;DHT22;2617;51.006;12.436;2023-02-13T23:08:40;3.60;99.90
5196;DHT22;2617;51.006;12.436;2023-02-13T23:13:43;3.70;99.90
5196;DHT22;2617;51.006;12.436;2023-02-13T23:18:54;3.70;99.90
5196;DHT22;2617;51.006;12.436;2023-02-13T23:23:56;3.70;99.90
5196;DHT22;2617;51.006;12.436;2023-02-13T23:28:59;3.70;99.90
5196;DHT22;2617;51.006;12.436;2023-02-13T23:34:01;3.70;99.90
5196;DHT22;2617;51.006;12.436;2023-02-13T23:39:04;3.70;99.90
5196;DHT22;2617;51.006;12.436;2023-02-13T23:44:06;3.60;99.90
5196;DHT22;2617;51.006;12.436;2023-02-13T23:49:08;3.60;99.90
5196;DHT22;2617;51.006;12.436;2023-02-13T23:54:13;3.60;99.90
5196;DHT22;2617;51.006;12.436;2023-02-13T23:59:15;3.60;99.90
